sensor_id;sensor_type;location;lat;lon;timestamp;temperature;humidity
15239;DHT22;7722;53.274;9.500;2023-02-22T00:00:33;8.30;99.90
15239;DHT22;7722;53.274;9.500;2023-02-22T00:03:10;8.30;99.90
15239;DHT22;7722;53.274;9.500;2023-02-22T00:05:38;8.30;99.90
15239;DHT22;7722;53.274;9.500;2023-02-22T00:08:05;8.30;99.90
15239;DHT22;7722;53.274;9.500;2023-02-22T00:10:34;8.30;99.90
15239;DHT22;7722;53.274;9.500;2023-02-22T00:13:04;8.40;99.90
15239;DHT22;7722;53.274;9.500;2023-02-22T00:15:32;8.50;99.90
15239;DHT22;7722;53.274;9.500;2023-02-22T00:17:59;8.40;99.90
15239;DHT22;7722;53.274;9.500;2023-02-22T00:20:26;8.50;99.90
15239;DHT22;7722;53.274;9.500;2023-02-22T00:22:55;8.50;99.90
15239;DHT22;7722;53.274;9.500;2023-02-22T00:25:23;8.50;99.90
15239;DHT22;7722;53.274;9.500;2023-02-22T00:27:51;8.60;99.90
15239;DHT22;7722;53.274;9.500;2023-02-22T00:30:21;8.40;99.90
15239;DHT22;7722;53.274;9.500;2023-02-22T00:32:50;8.50;99.90
15239;DHT22;7722;53.274;9.500;2023-02-22T00:35:19;8.40;99.90
15239;DHT22;7722;53.274;9.500;2023-02-22T00:37:47;8.40;99.90
15239;DHT22;7722;53.274;9.500;2023-02-22T00:40:17;8.50;99.90
15239;DHT22;7722;53.274;9.500;2023-02-22T00:42:45;8.50;99.90
15239;DHT22;7722;53.274;9.500;2023-02-22T00:45:14;8.30;99.90
15239;DHT22;7722;53.274;9.500;2023-02-22T00:47:42;8.50;99.90
15239;DHT22;7722;53.274;9.500;2023-02-22T00:50:09;8.40;99.90
15239;DHT22;7722;53.274;9.500;2023-02-22T00:52:37;8.50;99.90
15239;DHT22;7722;53.274;9.500;2023-02-22T00:55:06;8.40;99.90
15239;DHT22;7722;53.274;9.500;2023-02-22T00:57:35;8.40;99.90
15239;DHT22;7722;53.274;9.500;2023-02-22T01:00:05;8.50;99.90
15239;DHT22;7722;53.274;9.500;2023-02-22T01:02:37;8.30;99.90
15239;DHT22;7722;53.274;9.500;2023-02-22T01:05:05;8.30;99.90
15239;DHT22;7722;53.274;9.500;2023-02-22T01:07:32;8.40;99.90
15239;DHT22;7722;53.274;9.500;2023-02-22T01:09:59;8.30;99.90
15239;DHT22;7722;53.274;9.500;2023-02-22T01:12:26;8.50;99.90
15239;DHT22;7722;53.274;9.500;2023-02-22T01:14:55;8.40;99.90
15239;DHT22;7722;53.274;9.500;2023-02-22T01:17:23;8.30;99.90
15239;DHT22;7722;53.274;9.500;2023-02-22T01:19:50;8.40;99.90
15239;DHT22;7722;53.274;9.500;2023-02-22T01:22:17;8.40;99.90
15239;DHT22;7722;53.274;9.500;2023-02-22T01:24:44;8.40;99.90
15239;DHT22;7722;53.274;9.500;2023-02-22T01:27:11;8.30;99.90
15239;DHT22;7722;53.274;9.500;2023-02-22T01:29:38;8.40;99.90
15239;DHT22;7722;53.274;9.500;2023-02-22T01:32:07;8.40;99.90
15239;DHT22;7722;53.274;9.500;2023-02-22T01:34:37;8.40;99.90
15239;DHT22;7722;53.274;9.500;2023-02-22T01:37:04;8.40;99.90
15239;DHT22;7722;53.274;9.500;2023-02-22T01:39:32;8.40;99.90
15239;DHT22;7722;53.274;9.500;2023-02-22T01:41:59;8.40;99.90
15239;DHT22;7722;53.274;9.500;2023-02-22T01:44:29;8.30;99.90
15239;DHT22;7722;53.274;9.500;2023-02-22T01:46:57;8.30;99.90
15239;DHT22;7722;53.274;9.500;2023-02-22T01:49:34;8.30;99.90
15239;DHT22;7722;53.274;9.500;2023-02-22T01:52:09;8.30;99.90
15239;DHT22;7722;53.274;9.500;2023-02-22T01:54:40;8.40;99.90
15239;DHT22;7722;53.274;9.500;2023-02-22T01:57:17;8.40;99.90
15239;DHT22;7722;53.274;9.500;2023-02-22T01:59:48;8.30;99.90
15239;DHT22;7722;53.274;9.500;2023-02-22T02:02:17;8.40;99.90
15239;DHT22;7722;53.274;9.500;2023-02-22T02:04:47;8.30;99.90
15239;DHT22;7722;53.274;9.500;2023-02-22T02:07:18;8.30;99.90
15239;DHT22;7722;53.274;9.500;2023-02-22T02:09:50;8.40;99.90
15239;DHT22;7722;53.274;9.500;2023-02-22T02:12:18;8.40;99.90
15239;DHT22;7722;53.274;9.500;2023-02-22T02:14:48;8.30;99.90
15239;DHT22;7722;53.274;9.500;2023-02-22T02:17:17;8.50;99.90
15239;DHT22;7722;53.274;9.500;2023-02-22T02:19:50;8.40;99.90
15239;DHT22;7722;53.274;9.500;2023-02-22T02:22:37;8.40;99.90
15239;DHT22;7722;53.274;9.500;2023-02-22T02:25:43;8.50;99.90
15239;DHT22;7722;53.274;9.500;2023-02-22T02:28:39;8.50;99.90
15239;DHT22;7722;53.274;9.500;2023-02-22T02:34:19;8.40;99.90
15239;DHT22;7722;53.274;9.500;2023-02-22T02:36:57;8.30;99.90
15239;DHT22;7722;53.274;9.500;2023-02-22T02:39:29;8.30;99.90
15239;DHT22;7722;53.274;9.500;2023-02-22T02:41:59;8.40;99.90
15239;DHT22;7722;53.274;9.500;2023-02-22T02:44:35;8.30;99.90
15239;DHT22;7722;53.274;9.500;2023-02-22T02:47:04;8.20;99.90
15239;DHT22;7722;53.274;9.500;2023-02-22T02:49:39;8.30;99.90
15239;DHT22;7722;53.274;9.500;2023-02-22T02:52:10;8.20;99.90
15239;DHT22;7722;53.274;9.500;2023-02-22T02:54:39;8.10;99.90
15239;DHT22;7722;53.274;9.500;2023-02-22T02:57:07;8.10;99.90
15239;DHT22;7722;53.274;9.500;2023-02-22T02:59:36;8.20;99.90
15239;DHT22;7722;53.274;9.500;2023-02-22T03:02:24;8.10;99.90
15239;DHT22;7722;53.274;9.500;2023-02-22T03:05:10;8.00;99.90
15239;DHT22;7722;53.274;9.500;2023-02-22T03:07:49;8.20;99.90
15239;DHT22;7722;53.274;9.500;2023-02-22T03:10:42;8.20;99.90
15239;DHT22;7722;53.274;9.500;2023-02-22T03:13:14;8.10;99.90
15239;DHT22;7722;53.274;9.500;2023-02-22T03:15:52;8.10;99.90
15239;DHT22;7722;53.274;9.500;2023-02-22T03:18:26;8.10;99.90
15239;DHT22;7722;53.274;9.500;2023-02-22T03:21:00;8.10;99.90
15239;DHT22;7722;53.274;9.500;2023-02-22T03:23:34;8.10;99.90
15239;DHT22;7722;53.274;9.500;2023-02-22T03:26:06;8.00;99.90
15239;DHT22;7722;53.274;9.500;2023-02-22T03:28:35;8.20;99.90
15239;DHT22;7722;53.274;9.500;2023-02-22T03:31:08;8.00;99.90
15239;DHT22;7722;53.274;9.500;2023-02-22T03:33:39;8.00;99.90
15239;DHT22;7722;53.274;9.500;2023-02-22T03:36:13;8.20;99.90
15239;DHT22;7722;53.274;9.500;2023-02-22T03:38:43;8.10;99.90
15239;DHT22;7722;53.274;9.500;2023-02-22T03:41:14;8.10;99.90
15239;DHT22;7722;53.274;9.500;2023-02-22T03:43:46;8.20;99.90
15239;DHT22;7722;53.274;9.500;2023-02-22T03:46:16;8.10;99.90
15239;DHT22;7722;53.274;9.500;2023-02-22T03:48:47;8.00;99.90
15239;DHT22;7722;53.274;9.500;2023-02-22T03:51:17;8.20;99.90
15239;DHT22;7722;53.274;9.500;2023-02-22T03:53:45;8.10;99.90
15239;DHT22;7722;53.274;9.500;2023-02-22T03:56:17;8.10;99.90
15239;DHT22;7722;53.274;9.500;2023-02-22T03:58:46;8.10;99.90
15239;DHT22;7722;53.274;9.500;2023-02-22T04:01:14;8.00;99.90
15239;DHT22;7722;53.274;9.500;2023-02-22T04:03:41;8.20;99.90
15239;DHT22;7722;53.274;9.500;2023-02-22T04:06:09;8.00;99.90
15239;DHT22;7722;53.274;9.500;2023-02-22T04:08:37;8.10;99.90
15239;DHT22;7722;53.274;9.500;2023-02-22T04:11:04;8.00;99.90
15239;DHT22;7722;53.274;9.500;2023-02-22T04:13:31;8.10;99.90
15239;DHT22;7722;53.274;9.500;2023-02-22T04:15:58;8.10;99.90
15239;DHT22;7722;53.274;9.500;2023-02-22T04:18:25;7.90;99.90
15239;DHT22;7722;53.274;9.500;2023-02-22T04:20:52;8.00;99.90
15239;DHT22;7722;53.274;9.500;2023-02-22T04:23:19;8.10;99.90
15239;DHT22;7722;53.274;9.500;2023-02-22T04:25:48;7.90;99.90
15239;DHT22;7722;53.274;9.500;2023-02-22T04:28:15;8.00;99.90
15239;DHT22;7722;53.274;9.500;2023-02-22T04:30:42;8.10;99.90
15239;DHT22;7722;53.274;9.500;2023-02-22T04:33:10;8.00;99.90
15239;DHT22;7722;53.274;9.500;2023-02-22T04:35:37;8.00;99.90
15239;DHT22;7722;53.274;9.500;2023-02-22T04:38:05;8.10;99.90
15239;DHT22;7722;53.274;9.500;2023-02-22T04:40:33;7.90;99.90
15239;DHT22;7722;53.274;9.500;2023-02-22T04:43:02;7.90;99.90
15239;DHT22;7722;53.274;9.500;2023-02-22T04:45:29;8.10;99.90
15239;DHT22;7722;53.274;9.500;2023-02-22T04:47:56;7.90;99.90
15239;DHT22;7722;53.274;9.500;2023-02-22T04:50:23;8.00;99.90
15239;DHT22;7722;53.274;9.500;2023-02-22T04:52:50;7.90;99.90
15239;DHT22;7722;53.274;9.500;2023-02-22T04:55:17;8.10;99.90
15239;DHT22;7722;53.274;9.500;2023-02-22T04:57:44;7.90;99.90
15239;DHT22;7722;53.274;9.500;2023-02-22T05:00:17;7.90;99.90
15239;DHT22;7722;53.274;9.500;2023-02-22T05:02:46;7.90;99.90
15239;DHT22;7722;53.274;9.500;2023-02-22T05:05:14;7.90;99.90
15239;DHT22;7722;53.274;9.500;2023-02-22T05:07:41;7.80;99.90
15239;DHT22;7722;53.274;9.500;2023-02-22T05:10:09;7.90;99.90
15239;DHT22;7722;53.274;9.500;2023-02-22T05:12:36;8.00;99.90
15239;DHT22;7722;53.274;9.500;2023-02-22T05:15:05;8.00;99.90
15239;DHT22;7722;53.274;9.500;2023-02-22T05:17:34;7.90;99.90
15239;DHT22;7722;53.274;9.500;2023-02-22T05:20:02;8.00;99.90
15239;DHT22;7722;53.274;9.500;2023-02-22T05:22:30;7.90;99.90
15239;DHT22;7722;53.274;9.500;2023-02-22T05:24:57;8.00;99.90
15239;DHT22;7722;53.274;9.500;2023-02-22T05:27:23;8.00;99.90
15239;DHT22;7722;53.274;9.500;2023-02-22T05:29:50;7.90;99.90
15239;DHT22;7722;53.274;9.500;2023-02-22T05:32:17;7.90;99.90
15239;DHT22;7722;53.274;9.500;2023-02-22T05:34:46;7.90;99.90
15239;DHT22;7722;53.274;9.500;2023-02-22T05:37:13;7.90;99.90
15239;DHT22;7722;53.274;9.500;2023-02-22T05:39:40;7.90;99.90
15239;DHT22;7722;53.274;9.500;2023-02-22T05:42:07;7.90;99.90
15239;DHT22;7722;53.274;9.500;2023-02-22T05:44:34;7.80;99.90
15239;DHT22;7722;53.274;9.500;2023-02-22T05:47:01;7.90;99.90
15239;DHT22;7722;53.274;9.500;2023-02-22T05:49:27;7.80;99.90
15239;DHT22;7722;53.274;9.500;2023-02-22T05:51:56;8.00;99.90
15239;DHT22;7722;53.274;9.500;2023-02-22T05:54:24;7.80;99.90
15239;DHT22;7722;53.274;9.500;2023-02-22T05:56:51;8.00;99.90
15239;DHT22;7722;53.274;9.500;2023-02-22T05:59:18;7.80;99.90
15239;DHT22;7722;53.274;9.500;2023-02-22T06:01:45;7.90;99.90
15239;DHT22;7722;53.274;9.500;2023-02-22T06:04:12;7.90;99.90
15239;DHT22;7722;53.274;9.500;2023-02-22T06:06:39;7.70;99.90
15239;DHT22;7722;53.274;9.500;2023-02-22T06:09:07;7.90;99.90
15239;DHT22;7722;53.274;9.500;2023-02-22T06:11:34;7.70;99.90
15239;DHT22;7722;53.274;9.500;2023-02-22T06:14:01;7.90;99.90
15239;DHT22;7722;53.274;9.500;2023-02-22T06:16:28;7.80;99.90
15239;DHT22;7722;53.274;9.500;2023-02-22T06:18:57;7.70;99.90
15239;DHT22;7722;53.274;9.500;2023-02-22T06:21:26;7.70;99.90
15239;DHT22;7722;53.274;9.500;2023-02-22T06:23:54;7.70;99.90
15239;DHT22;7722;53.274;9.500;2023-02-22T06:26:22;7.80;99.90
15239;DHT22;7722;53.274;9.500;2023-02-22T06:28:49;7.90;99.90
15239;DHT22;7722;53.274;9.500;2023-02-22T06:31:16;7.70;99.90
15239;DHT22;7722;53.274;9.500;2023-02-22T06:33:43;7.80;99.90
15239;DHT22;7722;53.274;9.500;2023-02-22T06:36:10;7.90;99.90
15239;DHT22;7722;53.274;9.500;2023-02-22T06:38:37;7.70;99.90
15239;DHT22;7722;53.274;9.500;2023-02-22T06:41:04;7.90;99.90
15239;DHT22;7722;53.274;9.500;2023-02-22T06:43:33;7.80;99.90
15239;DHT22;7722;53.274;9.500;2023-02-22T06:46:00;7.90;99.90
15239;DHT22;7722;53.274;9.500;2023-02-22T06:48:27;7.90;99.90
15239;DHT22;7722;53.274;9.500;2023-02-22T06:50:54;7.80;99.90
15239;DHT22;7722;53.274;9.500;2023-02-22T06:53:21;8.00;99.90
15239;DHT22;7722;53.274;9.500;2023-02-22T06:55:48;7.80;99.90
15239;DHT22;7722;53.274;9.500;2023-02-22T06:58:15;7.80;99.90
15239;DHT22;7722;53.274;9.500;2023-02-22T07:00:44;7.80;99.90
15239;DHT22;7722;53.274;9.500;2023-02-22T07:03:10;8.00;99.90
15239;DHT22;7722;53.274;9.500;2023-02-22T07:05:38;8.00;99.90
15239;DHT22;7722;53.274;9.500;2023-02-22T07:08:06;7.90;99.90
15239;DHT22;7722;53.274;9.500;2023-02-22T07:10:35;8.00;99.90
15239;DHT22;7722;53.274;9.500;2023-02-22T07:13:03;8.00;99.90
15239;DHT22;7722;53.274;9.500;2023-02-22T07:15:31;8.00;99.90
15239;DHT22;7722;53.274;9.500;2023-02-22T07:18:00;8.00;99.90
15239;DHT22;7722;53.274;9.500;2023-02-22T07:20:29;7.90;99.90
15239;DHT22;7722;53.274;9.500;2023-02-22T07:22:56;7.90;99.90
15239;DHT22;7722;53.274;9.500;2023-02-22T07:25:23;7.90;99.90
15239;DHT22;7722;53.274;9.500;2023-02-22T07:27:50;7.90;99.90
15239;DHT22;7722;53.274;9.500;2023-02-22T07:30:20;7.80;99.90
15239;DHT22;7722;53.274;9.500;2023-02-22T07:32:51;7.90;99.90
15239;DHT22;7722;53.274;9.500;2023-02-22T07:35:21;8.00;99.90
15239;DHT22;7722;53.274;9.500;2023-02-22T07:37:48;8.00;99.90
15239;DHT22;7722;53.274;9.500;2023-02-22T07:40:17;8.00;99.90
15239;DHT22;7722;53.274;9.500;2023-02-22T07:42:51;8.00;99.90
15239;DHT22;7722;53.274;9.500;2023-02-22T07:45:19;8.00;99.90
15239;DHT22;7722;53.274;9.500;2023-02-22T07:47:47;8.00;99.90
15239;DHT22;7722;53.274;9.500;2023-02-22T07:50:14;8.20;99.90
15239;DHT22;7722;53.274;9.500;2023-02-22T07:52:45;8.30;99.90
15239;DHT22;7722;53.274;9.500;2023-02-22T07:55:13;8.30;99.90
15239;DHT22;7722;53.274;9.500;2023-02-22T07:57:41;8.20;99.90
15239;DHT22;7722;53.274;9.500;2023-02-22T08:00:09;8.40;99.90
15239;DHT22;7722;53.274;9.500;2023-02-22T08:02:39;8.40;99.90
15239;DHT22;7722;53.274;9.500;2023-02-22T08:05:06;8.50;99.90
15239;DHT22;7722;53.274;9.500;2023-02-22T08:07:35;8.50;99.90
15239;DHT22;7722;53.274;9.500;2023-02-22T08:10:04;8.70;99.90
15239;DHT22;7722;53.274;9.500;2023-02-22T08:12:32;8.60;99.90
15239;DHT22;7722;53.274;9.500;2023-02-22T08:14:59;8.60;99.90
15239;DHT22;7722;53.274;9.500;2023-02-22T08:17:26;8.80;99.90
15239;DHT22;7722;53.274;9.500;2023-02-22T08:19:54;8.80;99.90
15239;DHT22;7722;53.274;9.500;2023-02-22T08:22:21;8.80;99.90
15239;DHT22;7722;53.274;9.500;2023-02-22T08:24:48;9.00;99.90
15239;DHT22;7722;53.274;9.500;2023-02-22T08:27:23;9.00;99.90
15239;DHT22;7722;53.274;9.500;2023-02-22T08:29:51;9.10;99.90
15239;DHT22;7722;53.274;9.500;2023-02-22T08:32:18;9.00;99.90
15239;DHT22;7722;53.274;9.500;2023-02-22T08:34:46;9.00;99.90
15239;DHT22;7722;53.274;9.500;2023-02-22T08:37:13;9.10;99.90
15239;DHT22;7722;53.274;9.500;2023-02-22T08:39:41;9.00;99.90
15239;DHT22;7722;53.274;9.500;2023-02-22T08:42:08;9.00;99.90
15239;DHT22;7722;53.274;9.500;2023-02-22T08:44:37;8.90;99.90
15239;DHT22;7722;53.274;9.500;2023-02-22T08:47:05;9.10;99.90
15239;DHT22;7722;53.274;9.500;2023-02-22T08:49:32;9.10;99.90
15239;DHT22;7722;53.274;9.500;2023-02-22T08:52:00;9.20;99.90
15239;DHT22;7722;53.274;9.500;2023-02-22T08:54:27;9.30;99.90
15239;DHT22;7722;53.274;9.500;2023-02-22T08:56:54;9.30;99.90
15239;DHT22;7722;53.274;9.500;2023-02-22T08:59:21;9.30;99.90
15239;DHT22;7722;53.274;9.500;2023-02-22T09:01:49;9.30;99.90
15239;DHT22;7722;53.274;9.500;2023-02-22T09:04:16;9.40;99.90
15239;DHT22;7722;53.274;9.500;2023-02-22T09:06:43;9.40;99.90
15239;DHT22;7722;53.274;9.500;2023-02-22T09:09:13;9.40;99.90
15239;DHT22;7722;53.274;9.500;2023-02-22T09:11:43;9.50;99.90
15239;DHT22;7722;53.274;9.500;2023-02-22T09:14:10;9.60;99.90
15239;DHT22;7722;53.274;9.500;2023-02-22T09:16:39;9.60;99.90
15239;DHT22;7722;53.274;9.500;2023-02-22T09:19:07;9.60;99.90
15239;DHT22;7722;53.274;9.500;2023-02-22T09:21:34;9.60;99.90
15239;DHT22;7722;53.274;9.500;2023-02-22T09:24:01;9.80;99.90
15239;DHT22;7722;53.274;9.500;2023-02-22T09:26:33;9.90;99.90
15239;DHT22;7722;53.274;9.500;2023-02-22T09:29:04;10.00;99.90
15239;DHT22;7722;53.274;9.500;2023-02-22T09:31:34;10.10;99.90
15239;DHT22;7722;53.274;9.500;2023-02-22T09:34:01;10.10;99.90
15239;DHT22;7722;53.274;9.500;2023-02-22T09:36:29;10.10;99.90
15239;DHT22;7722;53.274;9.500;2023-02-22T09:38:56;10.10;99.90
15239;DHT22;7722;53.274;9.500;2023-02-22T09:41:26;10.20;99.90
15239;DHT22;7722;53.274;9.500;2023-02-22T09:44:08;10.30;99.90
15239;DHT22;7722;53.274;9.500;2023-02-22T09:46:40;10.40;99.90
15239;DHT22;7722;53.274;9.500;2023-02-22T09:49:17;10.50;99.90
15239;DHT22;7722;53.274;9.500;2023-02-22T09:51:51;10.50;99.90
15239;DHT22;7722;53.274;9.500;2023-02-22T09:54:28;10.50;99.90
15239;DHT22;7722;53.274;9.500;2023-02-22T09:57:01;10.50;99.90
15239;DHT22;7722;53.274;9.500;2023-02-22T09:59:31;10.60;99.90
15239;DHT22;7722;53.274;9.500;2023-02-22T10:02:04;10.60;99.90
15239;DHT22;7722;53.274;9.500;2023-02-22T10:04:41;10.70;99.90
15239;DHT22;7722;53.274;9.500;2023-02-22T10:07:15;10.70;99.90
15239;DHT22;7722;53.274;9.500;2023-02-22T10:09:45;10.60;99.90
15239;DHT22;7722;53.274;9.500;2023-02-22T10:12:17;10.70;99.90
15239;DHT22;7722;53.274;9.500;2023-02-22T10:15:13;10.80;99.90
15239;DHT22;7722;53.274;9.500;2023-02-22T10:17:48;11.00;99.90
15239;DHT22;7722;53.274;9.500;2023-02-22T10:20:26;11.00;99.90
15239;DHT22;7722;53.274;9.500;2023-02-22T10:23:08;10.90;99.90
15239;DHT22;7722;53.274;9.500;2023-02-22T10:25:39;11.00;99.90
15239;DHT22;7722;53.274;9.500;2023-02-22T10:28:14;11.00;99.90
15239;DHT22;7722;53.274;9.500;2023-02-22T10:30:48;11.00;99.90
15239;DHT22;7722;53.274;9.500;2023-02-22T10:33:21;11.00;99.90
15239;DHT22;7722;53.274;9.500;2023-02-22T10:35:52;11.00;99.90
15239;DHT22;7722;53.274;9.500;2023-02-22T10:38:23;11.00;99.90
15239;DHT22;7722;53.274;9.500;2023-02-22T10:40:54;11.10;99.90
15239;DHT22;7722;53.274;9.500;2023-02-22T10:43:23;11.00;99.90
15239;DHT22;7722;53.274;9.500;2023-02-22T10:45:52;10.90;99.90
15239;DHT22;7722;53.274;9.500;2023-02-22T10:48:22;10.80;99.90
15239;DHT22;7722;53.274;9.500;2023-02-22T10:50:52;10.70;99.90
15239;DHT22;7722;53.274;9.500;2023-02-22T10:53:22;10.60;99.90
15239;DHT22;7722;53.274;9.500;2023-02-22T10:56:11;10.50;99.90
15239;DHT22;7722;53.274;9.500;2023-02-22T10:58:46;10.50;99.90
15239;DHT22;7722;53.274;9.500;2023-02-22T11:01:20;10.50;99.90
15239;DHT22;7722;53.274;9.500;2023-02-22T11:04:00;10.50;99.90
15239;DHT22;7722;53.274;9.500;2023-02-22T11:06:27;10.60;99.90
15239;DHT22;7722;53.274;9.500;2023-02-22T11:09:06;10.60;99.90
15239;DHT22;7722;53.274;9.500;2023-02-22T11:11:35;10.60;99.90
15239;DHT22;7722;53.274;9.500;2023-02-22T11:14:02;10.70;99.90
15239;DHT22;7722;53.274;9.500;2023-02-22T11:16:33;10.70;99.90
15239;DHT22;7722;53.274;9.500;2023-02-22T11:19:10;10.70;99.90
15239;DHT22;7722;53.274;9.500;2023-02-22T11:21:38;10.70;99.90
15239;DHT22;7722;53.274;9.500;2023-02-22T11:24:09;10.90;99.90
15239;DHT22;7722;53.274;9.500;2023-02-22T11:26:40;11.10;99.90
15239;DHT22;7722;53.274;9.500;2023-02-22T11:29:17;11.40;99.90
15239;DHT22;7722;53.274;9.500;2023-02-22T11:31:45;11.50;99.90
15239;DHT22;7722;53.274;9.500;2023-02-22T11:34:33;11.70;99.90
15239;DHT22;7722;53.274;9.500;2023-02-22T11:37:26;11.80;99.90
15239;DHT22;7722;53.274;9.500;2023-02-22T11:40:12;11.70;99.90
15239;DHT22;7722;53.274;9.500;2023-02-22T11:42:42;11.90;99.90
15239;DHT22;7722;53.274;9.500;2023-02-22T11:45:12;12.20;99.90
15239;DHT22;7722;53.274;9.500;2023-02-22T11:47:50;12.30;99.90
15239;DHT22;7722;53.274;9.500;2023-02-22T11:50:29;12.30;99.90
15239;DHT22;7722;53.274;9.500;2023-02-22T11:53:20;12.10;99.90
15239;DHT22;7722;53.274;9.500;2023-02-22T11:56:00;12.00;99.90
15239;DHT22;7722;53.274;9.500;2023-02-22T11:58:42;11.90;99.90
15239;DHT22;7722;53.274;9.500;2023-02-22T12:01:17;12.00;99.90
15239;DHT22;7722;53.274;9.500;2023-02-22T12:06:54;12.10;99.90
15239;DHT22;7722;53.274;9.500;2023-02-22T12:09:26;12.10;99.90
15239;DHT22;7722;53.274;9.500;2023-02-22T12:12:11;12.20;99.90
15239;DHT22;7722;53.274;9.500;2023-02-22T12:14:48;12.40;99.90
15239;DHT22;7722;53.274;9.500;2023-02-22T12:17:36;12.50;99.90
15239;DHT22;7722;53.274;9.500;2023-02-22T12:20:15;12.60;99.90
15239;DHT22;7722;53.274;9.500;2023-02-22T12:22:53;12.60;99.90
15239;DHT22;7722;53.274;9.500;2023-02-22T12:25:24;12.60;99.90
15239;DHT22;7722;53.274;9.500;2023-02-22T12:27:59;12.80;99.90
15239;DHT22;7722;53.274;9.500;2023-02-22T12:30:32;12.80;99.90
15239;DHT22;7722;53.274;9.500;2023-02-22T12:33:05;12.70;99.90
15239;DHT22;7722;53.274;9.500;2023-02-22T12:35:38;12.90;99.90
15239;DHT22;7722;53.274;9.500;2023-02-22T12:38:13;13.00;99.90
15239;DHT22;7722;53.274;9.500;2023-02-22T12:40:51;13.10;99.90
15239;DHT22;7722;53.274;9.500;2023-02-22T12:43:27;13.20;99.90
15239;DHT22;7722;53.274;9.500;2023-02-22T12:46:02;13.20;99.90
15239;DHT22;7722;53.274;9.500;2023-02-22T12:48:36;13.00;99.90
15239;DHT22;7722;53.274;9.500;2023-02-22T12:51:18;13.00;99.90
15239;DHT22;7722;53.274;9.500;2023-02-22T12:53:53;13.10;99.90
15239;DHT22;7722;53.274;9.500;2023-02-22T12:56:27;13.10;99.90
15239;DHT22;7722;53.274;9.500;2023-02-22T12:58:59;13.10;99.90
15239;DHT22;7722;53.274;9.500;2023-02-22T13:01:35;12.90;99.90
15239;DHT22;7722;53.274;9.500;2023-02-22T13:04:03;13.20;99.90
15239;DHT22;7722;53.274;9.500;2023-02-22T13:06:44;13.20;99.90
15239;DHT22;7722;53.274;9.500;2023-02-22T13:09:32;13.30;99.90
15239;DHT22;7722;53.274;9.500;2023-02-22T13:12:08;13.30;99.90
15239;DHT22;7722;53.274;9.500;2023-02-22T13:14:46;13.30;99.90
15239;DHT22;7722;53.274;9.500;2023-02-22T13:17:20;13.40;99.90
15239;DHT22;7722;53.274;9.500;2023-02-22T13:19:56;13.40;99.90
15239;DHT22;7722;53.274;9.500;2023-02-22T13:22:30;13.30;99.90
15239;DHT22;7722;53.274;9.500;2023-02-22T13:25:05;13.30;99.90
15239;DHT22;7722;53.274;9.500;2023-02-22T13:27:40;13.20;99.90
15239;DHT22;7722;53.274;9.500;2023-02-22T13:30:18;13.20;99.90
15239;DHT22;7722;53.274;9.500;2023-02-22T13:32:58;13.20;99.90
15239;DHT22;7722;53.274;9.500;2023-02-22T13:35:44;13.10;99.90
15239;DHT22;7722;53.274;9.500;2023-02-22T13:41:35;13.10;99.90
15239;DHT22;7722;53.274;9.500;2023-02-22T13:44:32;13.00;99.90
15239;DHT22;7722;53.274;9.500;2023-02-22T13:50:19;13.00;99.90
15239;DHT22;7722;53.274;9.500;2023-02-22T13:52:49;13.00;99.90
15239;DHT22;7722;53.274;9.500;2023-02-22T13:55:19;13.00;99.90
15239;DHT22;7722;53.274;9.500;2023-02-22T13:57:48;12.90;99.90
15239;DHT22;7722;53.274;9.500;2023-02-22T14:00:37;12.90;99.90
15239;DHT22;7722;53.274;9.500;2023-02-22T14:03:09;12.80;99.90
15239;DHT22;7722;53.274;9.500;2023-02-22T14:05:50;12.80;99.90
15239;DHT22;7722;53.274;9.500;2023-02-22T14:08:42;12.70;99.90
15239;DHT22;7722;53.274;9.500;2023-02-22T14:11:43;12.60;99.90
15239;DHT22;7722;53.274;9.500;2023-02-22T14:14:13;12.70;99.90
15239;DHT22;7722;53.274;9.500;2023-02-22T14:16:42;12.70;99.90
15239;DHT22;7722;53.274;9.500;2023-02-22T14:19:17;12.70;99.90
15239;DHT22;7722;53.274;9.500;2023-02-22T14:21:58;12.70;99.90
15239;DHT22;7722;53.274;9.500;2023-02-22T14:24:28;12.60;99.90
15239;DHT22;7722;53.274;9.500;2023-02-22T14:26:59;12.50;99.90
15239;DHT22;7722;53.274;9.500;2023-02-22T14:29:28;12.50;99.90
15239;DHT22;7722;53.274;9.500;2023-02-22T14:32:06;12.40;99.90
15239;DHT22;7722;53.274;9.500;2023-02-22T14:34:53;12.50;99.90
15239;DHT22;7722;53.274;9.500;2023-02-22T14:37:25;12.50;99.90
15239;DHT22;7722;53.274;9.500;2023-02-22T14:39:58;12.50;99.90
15239;DHT22;7722;53.274;9.500;2023-02-22T14:42:39;12.60;99.90
15239;DHT22;7722;53.274;9.500;2023-02-22T14:45:16;12.50;99.90
15239;DHT22;7722;53.274;9.500;2023-02-22T14:47:49;12.50;99.90
15239;DHT22;7722;53.274;9.500;2023-02-22T14:50:32;12.50;99.90
15239;DHT22;7722;53.274;9.500;2023-02-22T14:53:11;12.50;99.90
15239;DHT22;7722;53.274;9.500;2023-02-22T14:55:41;12.40;99.90
15239;DHT22;7722;53.274;9.500;2023-02-22T14:58:13;12.40;99.90
15239;DHT22;7722;53.274;9.500;2023-02-22T15:00:44;12.40;99.90
15239;DHT22;7722;53.274;9.500;2023-02-22T15:03:24;12.30;99.90
15239;DHT22;7722;53.274;9.500;2023-02-22T15:05:53;12.20;99.90
15239;DHT22;7722;53.274;9.500;2023-02-22T15:08:21;12.10;99.90
15239;DHT22;7722;53.274;9.500;2023-02-22T15:10:53;12.10;99.90
15239;DHT22;7722;53.274;9.500;2023-02-22T15:13:22;12.00;99.90
15239;DHT22;7722;53.274;9.500;2023-02-22T15:15:54;12.00;99.90
15239;DHT22;7722;53.274;9.500;2023-02-22T15:18:25;12.10;99.90
15239;DHT22;7722;53.274;9.500;2023-02-22T15:20:56;12.00;99.90
15239;DHT22;7722;53.274;9.500;2023-02-22T15:23:27;11.90;99.90
15239;DHT22;7722;53.274;9.500;2023-02-22T15:25:58;11.90;99.90
15239;DHT22;7722;53.274;9.500;2023-02-22T15:28:28;11.80;99.90
15239;DHT22;7722;53.274;9.500;2023-02-22T15:31:20;11.80;99.90
15239;DHT22;7722;53.274;9.500;2023-02-22T15:33:48;11.90;99.90
15239;DHT22;7722;53.274;9.500;2023-02-22T15:36:18;11.80;99.90
15239;DHT22;7722;53.274;9.500;2023-02-22T15:38:52;11.80;99.90
15239;DHT22;7722;53.274;9.500;2023-02-22T15:41:27;11.80;99.90
15239;DHT22;7722;53.274;9.500;2023-02-22T15:44:04;11.70;99.90
15239;DHT22;7722;53.274;9.500;2023-02-22T15:46:32;11.70;99.90
15239;DHT22;7722;53.274;9.500;2023-02-22T15:49:16;11.60;99.90
15239;DHT22;7722;53.274;9.500;2023-02-22T15:51:46;11.60;99.90
15239;DHT22;7722;53.274;9.500;2023-02-22T15:54:18;11.50;99.90
15239;DHT22;7722;53.274;9.500;2023-02-22T15:56:51;11.50;99.90
15239;DHT22;7722;53.274;9.500;2023-02-22T15:59:22;11.40;99.90
15239;DHT22;7722;53.274;9.500;2023-02-22T16:01:56;11.40;99.90
15239;DHT22;7722;53.274;9.500;2023-02-22T16:04:26;11.40;99.90
15239;DHT22;7722;53.274;9.500;2023-02-22T16:07:02;11.30;99.90
15239;DHT22;7722;53.274;9.500;2023-02-22T16:09:33;11.20;99.90
15239;DHT22;7722;53.274;9.500;2023-02-22T16:12:08;11.10;99.90
15239;DHT22;7722;53.274;9.500;2023-02-22T16:14:40;11.00;99.90
15239;DHT22;7722;53.274;9.500;2023-02-22T16:17:33;11.00;99.90
15239;DHT22;7722;53.274;9.500;2023-02-22T16:22:44;10.80;99.90
15239;DHT22;7722;53.274;9.500;2023-02-22T16:25:29;10.80;99.90
15239;DHT22;7722;53.274;9.500;2023-02-22T16:27:59;10.80;99.90
15239;DHT22;7722;53.274;9.500;2023-02-22T16:30:32;10.70;99.90
15239;DHT22;7722;53.274;9.500;2023-02-22T16:33:03;10.60;99.90
15239;DHT22;7722;53.274;9.500;2023-02-22T16:35:31;10.50;99.90
15239;DHT22;7722;53.274;9.500;2023-02-22T16:38:02;10.30;99.90